createdAt,value
2022-08-17T00:00:52.339Z,35
2022-08-17T00:03:57.483Z,33
2022-08-17T00:10:45.207Z,31
2022-08-17T00:13:50.505Z,35
2022-08-17T00:16:50.349Z,35
2022-08-17T00:19:52.988Z,31
2022-08-17T00:22:58.306Z,38
2022-08-17T00:26:44.888Z,34
2022-08-17T00:29:46.103Z,37
2022-08-17T00:33:10.700Z,32
2022-08-17T00:35:56.567Z,35
2022-08-17T00:39:39.013Z,33
2022-08-17T00:42:44.235Z,36
2022-08-17T00:45:49.536Z,40
2022-08-17T00:48:54.843Z,34
2022-08-17T00:52:37.266Z,33
2022-08-17T00:55:42.541Z,33
2022-08-17T00:58:47.886Z,36
2022-08-17T01:01:53.180Z,34
2022-08-17T01:04:58.493Z,33
2022-08-17T01:08:40.839Z,37
2022-08-17T01:11:46.175Z,33
2022-08-17T01:14:51.485Z,35
2022-08-17T01:17:48.596Z,35
2022-08-17T01:20:53.892Z,35
2022-08-17T01:23:59.216Z,39
2022-08-17T01:27:41.564Z,35
2022-08-17T01:30:57.607Z,34
2022-08-17T01:33:52.199Z,38
2022-08-17T01:36:57.520Z,33
2022-08-17T01:40:39.875Z,34
2022-08-17T01:43:45.186Z,34
2022-08-17T01:46:50.520Z,38
2022-08-17T01:49:55.800Z,38
2022-08-17T01:53:38.215Z,36
2022-08-17T01:56:43.483Z,37
2022-08-17T01:59:48.807Z,36
2022-08-17T02:02:54.089Z,37
2022-08-17T02:06:45.490Z,37
2022-08-17T02:09:42.094Z,38
2022-08-17T02:12:47.113Z,35
2022-08-17T02:15:52.381Z,37
2022-08-17T02:18:49.538Z,39
2022-08-17T02:21:54.865Z,35
2022-08-17T02:25:37.202Z,35
2022-08-17T02:28:42.555Z,37
2022-08-17T02:31:47.815Z,35
2022-08-17T02:34:53.125Z,39
2022-08-17T02:37:58.461Z,37
2022-08-17T02:41:40.789Z,35
2022-08-17T02:44:46.131Z,41
2022-08-17T02:47:51.430Z,37
2022-08-17T02:50:56.767Z,35
2022-08-17T02:54:41.880Z,41
2022-08-17T02:57:44.447Z,41
2022-08-17T03:00:49.775Z,42
2022-08-17T03:03:55.077Z,40
2022-08-17T03:07:37.406Z,37
2022-08-17T03:10:42.755Z,40
2022-08-17T03:13:48.053Z,37
2022-08-17T03:16:53.363Z,37
2022-08-17T03:20:27.503Z,38
2022-08-17T03:22:56.167Z,39
2022-08-17T03:26:38.155Z,38
2022-08-17T03:29:43.489Z,37
2022-08-17T03:32:48.819Z,37
2022-08-17T03:35:54.126Z,40
2022-08-17T03:39:36.528Z,38
2022-08-17T03:42:41.806Z,36
2022-08-17T03:45:47.122Z,37
2022-08-17T03:48:52.390Z,30
2022-08-17T03:51:57.712Z,36
2022-08-17T03:55:40.054Z,34
2022-08-17T03:58:45.387Z,35
2022-08-17T04:01:50.783Z,34
2022-08-17T04:04:55.999Z,29
2022-08-17T04:08:38.410Z,29
2022-08-17T04:11:43.685Z,29
2022-08-17T04:14:52.351Z,31
2022-08-17T04:19:37.311Z,32
2022-08-17T04:22:42.631Z,31
2022-08-17T04:25:47.948Z,35
2022-08-17T04:28:53.232Z,31
2022-08-17T04:31:58.537Z,28
2022-08-17T04:35:40.915Z,30
2022-08-17T04:38:46.226Z,32
2022-08-17T04:41:51.559Z,29
2022-08-17T04:44:56.862Z,29
2022-08-17T04:48:39.201Z,32
2022-08-17T04:51:45.555Z,29
2022-08-17T04:54:49.824Z,31
2022-08-17T04:57:55.159Z,27
2022-08-17T05:01:37.578Z,30
2022-08-17T05:04:42.835Z,30
2022-08-17T05:07:48.159Z,33
2022-08-17T05:10:53.462Z,29
2022-08-17T05:13:58.777Z,29
2022-08-17T05:17:41.149Z,32
2022-08-17T05:20:38.247Z,33
2022-08-17T05:23:43.633Z,31
2022-08-17T05:26:48.858Z,29
2022-08-17T05:29:54.194Z,32
2022-08-17T05:33:36.555Z,35
2022-08-17T05:36:44.240Z,37
2022-08-17T05:39:47.226Z,33
2022-08-17T05:42:52.798Z,36
2022-08-17T05:45:57.801Z,32
2022-08-17T05:49:40.189Z,33
2022-08-17T05:52:45.499Z,38
2022-08-17T05:55:50.803Z,36
2022-08-17T05:58:56.086Z,37
2022-08-17T06:02:38.470Z,36
2022-08-17T06:05:43.779Z,35
2022-08-17T06:09:26.741Z,38
2022-08-17T06:11:54.395Z,34
2022-08-17T06:15:36.772Z,41
2022-08-17T06:18:33.916Z,38
2022-08-17T06:21:39.204Z,43
2022-08-17T06:24:44.510Z,47
2022-08-17T06:27:53.767Z,41
2022-08-17T06:30:57.830Z,47
2022-08-17T06:34:37.506Z,45
2022-08-17T06:37:42.833Z,44
2022-08-17T06:40:48.130Z,42
2022-08-17T06:43:53.448Z,43
2022-08-17T06:46:58.754Z,42
2022-08-17T06:50:41.101Z,41
2022-08-17T06:53:46.455Z,46
2022-08-17T06:56:53.588Z,40
2022-08-17T06:59:57.043Z,42
2022-08-17T07:03:39.486Z,41
2022-08-17T07:06:44.742Z,48
2022-08-17T07:09:50.080Z,49
2022-08-17T07:12:55.417Z,49
2022-08-17T07:16:37.739Z,43
2022-08-17T07:20:48.971Z,47
2022-08-17T07:23:54.316Z,44
2022-08-17T07:27:36.684Z,46
2022-08-17T07:30:44.695Z,44
2022-08-17T07:33:47.292Z,52
2022-08-17T07:36:52.571Z,48
2022-08-17T07:39:59.044Z,50
2022-08-17T07:43:40.267Z,52
2022-08-17T07:46:45.580Z,48
2022-08-17T07:49:50.905Z,51
2022-08-17T07:52:56.199Z,49
2022-08-17T07:56:38.582Z,54
2022-08-17T07:59:43.927Z,52
2022-08-17T08:02:49.228Z,55
2022-08-17T08:05:54.507Z,53
2022-08-17T08:09:36.871Z,53
2022-08-17T08:12:42.189Z,58
2022-08-17T08:15:49.377Z,54
2022-08-17T08:18:53.950Z,58
2022-08-17T08:21:49.915Z,60
2022-08-17T08:24:55.261Z,58
2022-08-17T08:28:37.632Z,66
2022-08-17T08:31:42.917Z,62
2022-08-17T08:35:00.883Z,275
2022-08-17T08:37:53.755Z,141
2022-08-17T08:40:58.860Z,154
2022-08-17T08:44:59.431Z,144
2022-08-17T08:47:46.682Z,93
2022-08-17T08:50:51.864Z,101
2022-08-17T08:53:57.157Z,87
2022-08-17T08:57:39.556Z,86
2022-08-17T09:00:44.889Z,77
2022-08-17T09:03:52.989Z,78
2022-08-17T09:06:55.433Z,70
2022-08-17T09:10:37.854Z,67
2022-08-17T09:13:43.139Z,54
2022-08-17T09:16:48.437Z,51
2022-08-17T09:19:45.557Z,45
2022-08-17T09:22:50.888Z,40
2022-08-17T09:25:56.189Z,36
2022-08-17T09:29:38.569Z,35
2022-08-17T09:32:43.910Z,32
2022-08-17T09:35:49.189Z,37
2022-08-17T09:38:54.514Z,32
2022-08-17T09:42:36.862Z,33
2022-08-17T09:45:42.193Z,34
2022-08-17T09:48:47.482Z,33
2022-08-17T09:51:52.813Z,36
2022-08-17T09:54:58.117Z,32
2022-08-17T09:58:40.487Z,30
2022-08-17T10:02:17.837Z,32
2022-08-17T10:04:51.124Z,29
2022-08-17T10:07:56.423Z,31
2022-08-17T10:11:38.803Z,31
2022-08-17T10:14:44.667Z,30
2022-08-17T10:17:49.534Z,32
2022-08-17T10:20:46.507Z,36
2022-08-17T10:23:51.841Z,42
2022-08-17T10:26:57.473Z,39
2022-08-17T10:30:39.498Z,41
2022-08-17T10:33:44.803Z,40
2022-08-17T10:36:50.156Z,43
2022-08-17T10:39:55.500Z,53
2022-08-17T10:43:37.799Z,45
2022-08-17T10:46:43.125Z,45
2022-08-17T10:49:48.434Z,37
2022-08-17T10:52:53.779Z,40
2022-08-17T10:55:59.067Z,35
2022-08-17T10:59:41.404Z,36
2022-08-17T11:02:46.791Z,34
2022-08-17T11:05:52.063Z,29
2022-08-17T11:08:57.414Z,49
2022-08-17T11:12:39.725Z,47
2022-08-17T11:15:45.051Z,35
2022-08-17T11:18:50.422Z,32
2022-08-17T11:21:47.505Z,29
2022-08-17T11:24:52.801Z,35
2022-08-17T11:27:58.080Z,33
2022-08-17T11:31:40.473Z,29
2022-08-17T11:34:45.771Z,30
2022-08-17T11:37:51.095Z,30
2022-08-17T11:40:56.388Z,32
2022-08-17T11:44:38.837Z,27
2022-08-17T11:47:53.001Z,29
2022-08-17T11:50:49.388Z,31
2022-08-17T11:54:08.939Z,29
2022-08-17T11:57:37.085Z,30
2022-08-17T12:00:42.415Z,30
2022-08-17T12:03:54.545Z,32
2022-08-17T12:06:52.990Z,31
2022-08-17T12:09:58.325Z,33
2022-08-17T12:13:40.687Z,31
2022-08-17T12:16:46.006Z,37
2022-08-17T12:19:51.321Z,34
2022-08-17T12:22:48.418Z,33
2022-08-17T12:25:53.734Z,35
2022-08-17T12:29:38.582Z,34
2022-08-17T12:32:41.464Z,35
2022-08-17T12:35:46.761Z,30
2022-08-17T12:38:52.068Z,35
2022-08-17T12:42:01.482Z,38
2022-08-17T12:45:39.738Z,31
2022-08-17T12:48:59.440Z,39
2022-08-17T12:51:50.343Z,32
2022-08-17T12:54:55.658Z,28
2022-08-17T12:58:38.023Z,28
2022-08-17T13:01:43.394Z,29
2022-08-17T13:04:48.638Z,30
2022-08-17T13:07:53.941Z,28
2022-08-17T13:10:59.289Z,31
2022-08-17T13:14:41.612Z,29
2022-08-17T13:17:47.000Z,29
2022-08-17T13:20:52.290Z,31
2022-08-17T13:23:53.630Z,28
2022-08-17T13:26:54.743Z,32
2022-08-17T13:30:37.087Z,33
2022-08-17T13:33:43.561Z,29
2022-08-17T13:36:47.923Z,28
2022-08-17T13:39:53.006Z,25
2022-08-17T13:42:58.295Z,26
2022-08-17T13:49:48.609Z,26
2022-08-17T13:52:52.172Z,24
2022-08-17T13:55:56.586Z,24
2022-08-17T13:59:53.915Z,23
2022-08-17T14:02:44.304Z,26
2022-08-17T14:05:49.607Z,26
2022-08-17T14:08:54.927Z,26
2022-08-17T14:12:37.289Z,25
2022-08-17T14:15:54.672Z,23
2022-08-17T14:18:55.607Z,24
2022-08-17T14:23:36.211Z,22
2022-08-17T14:26:41.508Z,25
2022-08-17T14:29:46.797Z,22
2022-08-17T14:33:29.477Z,23
2022-08-17T14:35:57.554Z,24
2022-08-17T14:39:39.883Z,24
2022-08-17T14:42:45.896Z,26
2022-08-17T14:45:50.448Z,24
2022-08-17T14:48:57.444Z,21
2022-08-17T14:52:38.131Z,22
2022-08-17T14:55:43.428Z,20
2022-08-17T14:58:48.731Z,25
2022-08-17T15:01:54.086Z,22
2022-08-17T15:05:36.427Z,30
2022-08-17T15:08:41.754Z,22
2022-08-17T15:11:47.077Z,18
2022-08-17T15:14:52.374Z,21
2022-08-17T15:17:58.023Z,18
2022-08-17T15:21:40.034Z,20
2022-08-17T15:24:37.228Z,23
2022-08-17T15:27:42.458Z,25
2022-08-17T15:30:47.804Z,19
2022-08-17T15:33:53.107Z,18
2022-08-17T15:36:58.398Z,18
2022-08-17T15:40:40.763Z,20
2022-08-17T15:43:46.091Z,19
2022-08-17T15:46:51.403Z,20
2022-08-17T15:50:00.095Z,22
2022-08-17T15:53:39.099Z,27
2022-08-17T15:56:44.373Z,24
2022-08-17T15:59:52.049Z,28
2022-08-17T16:03:15.653Z,22
2022-08-17T16:06:37.399Z,22
2022-08-17T16:10:56.838Z,23
2022-08-17T16:14:39.179Z,22
2022-08-17T16:17:44.487Z,24
2022-08-17T16:20:49.839Z,23
2022-08-17T16:23:46.915Z,22
2022-08-17T16:26:52.247Z,23
2022-08-17T16:29:57.553Z,26
2022-08-17T16:32:31.610Z,22
2022-08-17T16:34:54.059Z,29
2022-08-17T16:38:36.403Z,24
2022-08-17T16:41:41.735Z,22
2022-08-17T16:44:47.044Z,22
2022-08-17T16:47:52.370Z,23
2022-08-17T16:50:58.572Z,22
2022-08-17T16:54:40.049Z,22
2022-08-17T16:57:47.445Z,22
2022-08-17T17:00:50.658Z,21
2022-08-17T17:03:58.209Z,24
2022-08-17T17:07:38.368Z,23
2022-08-17T17:10:43.645Z,24
2022-08-17T17:13:48.999Z,25
2022-08-17T17:16:54.270Z,26
2022-08-17T17:19:59.610Z,21
2022-08-17T17:24:50.148Z,24
2022-08-17T17:27:53.266Z,23
2022-08-17T17:30:58.478Z,25
2022-08-17T17:34:40.895Z,25
2022-08-17T17:37:46.260Z,25
2022-08-17T17:40:51.529Z,28
2022-08-17T17:43:56.810Z,24
2022-08-17T17:47:39.172Z,27
2022-08-17T17:50:44.480Z,25
2022-08-17T17:53:49.782Z,28
2022-08-17T17:56:55.100Z,27
2022-08-17T18:00:37.496Z,28
2022-08-17T18:03:42.798Z,29
2022-08-17T18:06:48.089Z,26
2022-08-17T18:09:53.659Z,28
2022-08-17T18:12:58.723Z,24
2022-08-17T18:16:41.106Z,27
2022-08-17T18:19:46.409Z,28
2022-08-17T18:22:51.900Z,27
2022-08-17T18:25:48.853Z,30
2022-08-17T18:28:54.128Z,32
2022-08-17T18:32:36.513Z,26
2022-08-17T18:35:41.811Z,27
2022-08-17T18:38:47.138Z,32
2022-08-17T18:41:52.455Z,40
2022-08-17T18:44:57.756Z,34
2022-08-17T18:48:40.136Z,39
2022-08-17T18:51:45.465Z,39
2022-08-17T18:54:50.746Z,31
2022-08-17T18:57:56.069Z,30
2022-08-17T19:01:41.654Z,29
2022-08-17T19:04:43.760Z,30
2022-08-17T19:07:49.164Z,31
2022-08-17T19:10:54.380Z,28
2022-08-17T19:13:59.710Z,29
2022-08-17T19:17:42.042Z,26
2022-08-17T19:20:47.343Z,35
2022-08-17T19:25:35.715Z,31
2022-08-17T19:28:40.979Z,27
2022-08-17T19:31:46.300Z,31
2022-08-17T19:35:23.716Z,29
2022-08-17T19:37:56.928Z,28
2022-08-17T19:41:42.971Z,29
2022-08-17T19:44:44.582Z,27
2022-08-17T19:47:55.020Z,28
2022-08-17T19:50:55.227Z,31
2022-08-17T19:54:37.649Z,30
2022-08-17T19:57:42.899Z,29
2022-08-17T20:00:48.240Z,30
2022-08-17T20:03:53.500Z,27
2022-08-17T20:06:58.852Z,31
2022-08-17T20:10:41.212Z,28
2022-08-17T20:13:46.497Z,28
2022-08-17T20:16:51.839Z,30
2022-08-17T20:19:57.160Z,29
2022-08-17T20:23:39.500Z,30
2022-08-17T20:26:36.634Z,31
2022-08-17T20:29:41.940Z,32
2022-08-17T20:32:47.215Z,31
2022-08-17T20:35:52.603Z,25
2022-08-17T20:38:57.863Z,32
2022-08-17T20:42:40.223Z,29
2022-08-17T20:45:45.598Z,25
2022-08-17T20:48:50.835Z,29
2022-08-17T20:52:01.092Z,30
2022-08-17T20:55:51.495Z,29
2022-08-17T20:58:43.884Z,29
2022-08-17T21:01:49.225Z,29
2022-08-17T21:04:54.650Z,31
2022-08-17T21:07:59.860Z,31
2022-08-17T21:11:56.517Z,28
2022-08-17T21:14:47.439Z,29
2022-08-17T21:17:52.993Z,30
2022-08-17T21:20:58.105Z,29
2022-08-17T21:25:46.430Z,31
2022-08-17T21:28:59.820Z,33
2022-08-17T21:31:57.022Z,33
2022-08-17T21:35:39.369Z,31
2022-08-17T21:38:44.722Z,34
2022-08-17T21:41:49.989Z,35
2022-08-17T21:44:55.795Z,30
2022-08-17T21:48:37.671Z,30
2022-08-17T21:51:43.007Z,31
2022-08-17T21:54:48.297Z,33
2022-08-17T21:58:12.234Z,30
2022-08-17T22:00:58.960Z,30
2022-08-17T22:04:41.316Z,33
2022-08-17T22:07:46.669Z,30
2022-08-17T22:10:51.921Z,28
2022-08-17T22:14:00.620Z,31
2022-08-17T22:17:39.644Z,30
2022-08-17T22:21:16.990Z,31
2022-08-17T22:23:50.256Z,28
2022-08-17T22:26:47.341Z,30
2022-08-17T22:29:52.907Z,30
2022-08-17T22:32:57.952Z,31
2022-08-17T22:36:40.313Z,30
2022-08-17T22:39:45.709Z,31
2022-08-17T22:42:50.928Z,28
2022-08-17T22:45:56.293Z,34
2022-08-17T22:49:38.622Z,26
2022-08-17T22:52:43.980Z,28
2022-08-17T22:55:49.267Z,32
2022-08-17T22:58:59.014Z,32
2022-08-17T23:02:39.257Z,33
2022-08-17T23:05:42.258Z,30
2022-08-17T23:08:47.606Z,29
2022-08-17T23:11:52.863Z,28
2022-08-17T23:14:58.215Z,32
2022-08-17T23:18:40.542Z,29
2022-08-17T23:21:45.842Z,30
2022-08-17T23:24:51.179Z,29
2022-08-17T23:27:48.315Z,30
2022-08-17T23:30:53.619Z,31
2022-08-17T23:34:35.950Z,31
2022-08-17T23:37:41.306Z,28
2022-08-17T23:40:46.590Z,31
2022-08-17T23:43:51.967Z,27
2022-08-17T23:46:57.259Z,28
2022-08-17T23:50:39.568Z,26
2022-08-17T23:53:44.927Z,28
2022-08-17T23:56:50.219Z,30
2022-08-17T23:59:55.543Z,26
